Time;durP1;ratioP1;P1;durP2;ratioP2;P2;SDS_P1;SDS_P2;PMS_P1;PMS_P2;Temp;Humidity;BMP_temperature;BMP_pressure;BME280_temperature;BME280_humidity;BME280_pressure;Samples;Min_cycle;Max_cycle;Signal;HPM_P1;HPM_P2
2021/05/27 00:01:24;;;;;;;13.98;9.52;;;9.90;99.90;;;;;;4998631;28;20036;-58
2021/05/27 00:03:50;;;;;;;15.93;10.32;;;9.90;99.90;;;;;;4995226;28;20042;-58
2021/05/27 00:06:15;;;;;;;15.05;9.88;;;9.90;99.90;;;;;;5011355;28;20040;-57
2021/05/27 00:08:41;;;;;;;15.20;9.93;;;9.90;99.90;;;;;;5012686;28;20030;-57
2021/05/27 00:11:06;;;;;;;17.65;11.10;;;9.90;99.90;;;;;;5012615;28;20037;-55
2021/05/27 00:13:32;;;;;;;20.35;10.20;;;9.90;99.90;;;;;;5019926;28;20024;-54
2021/05/27 00:15:58;;;;;;;18.17;11.43;;;9.90;99.90;;;;;;5008608;28;20540;-59
2021/05/27 00:18:24;;;;;;;19.42;10.80;;;9.90;99.90;;;;;;5021638;28;20022;-55
2021/05/27 00:20:49;;;;;;;19.70;11.40;;;9.90;99.90;;;;;;5009069;28;20396;-59
2021/05/27 00:23:15;;;;;;;19.08;11.30;;;9.90;99.90;;;;;;5009901;28;20033;-58
2021/05/27 00:25:41;;;;;;;15.77;10.00;;;10.00;99.90;;;;;;5018931;28;20038;-59
2021/05/27 00:28:06;;;;;;;15.98;12.13;;;10.00;99.90;;;;;;5012644;28;20030;-56
2021/05/27 00:30:32;;;;;;;15.88;10.43;;;9.90;99.90;;;;;;5019164;28;20029;-59
2021/05/27 00:32:57;;;;;;;21.48;10.45;;;9.90;99.90;;;;;;5014708;28;20029;-59
2021/05/27 00:35:23;;;;;;;14.20;9.95;;;10.00;99.90;;;;;;5015596;28;20515;-59
2021/05/27 00:37:49;;;;;;;19.13;10.13;;;10.00;99.90;;;;;;5018103;28;20105;-57
2021/05/27 00:40:16;;;;;;;18.67;10.15;;;9.90;99.90;;;;;;5006774;28;20496;-58
2021/05/27 00:42:42;;;;;;;18.27;10.07;;;10.00;99.90;;;;;;5011187;28;20018;-59
2021/05/27 00:45:13;;;;;;;16.98;11.90;;;9.90;99.90;;;;;;5012587;28;20113;-55
2021/05/27 00:47:40;;;;;;;17.20;10.82;;;10.00;99.90;;;;;;5013514;28;20029;-58
2021/05/27 00:50:09;;;;;;;20.98;13.13;;;10.00;99.90;;;;;;5016044;28;20030;-58
2021/05/27 00:52:35;;;;;;;14.30;11.02;;;10.00;99.90;;;;;;5015090;28;20049;-60
2021/05/27 00:55:03;;;;;;;20.10;12.32;;;10.00;99.90;;;;;;5019255;28;20025;-60
2021/05/27 00:57:34;;;;;;;16.17;11.48;;;10.00;99.90;;;;;;5022861;28;20425;-58
2021/05/27 01:00:01;;;;;;;21.55;12.02;;;10.00;99.90;;;;;;5004775;28;20018;-60
2021/05/27 01:02:27;;;;;;;18.80;12.13;;;10.00;99.90;;;;;;5009734;28;20028;-56
2021/05/27 01:04:54;;;;;;;20.48;11.98;;;10.00;99.90;;;;;;5023582;28;20037;-57
2021/05/27 01:07:19;;;;;;;19.17;11.85;;;10.00;99.90;;;;;;5019297;28;20022;-57
2021/05/27 01:09:45;;;;;;;18.55;11.38;;;10.00;99.90;;;;;;5018645;28;20667;-59
2021/05/27 01:12:11;;;;;;;22.08;12.75;;;10.00;99.90;;;;;;5024959;28;20053;-58
2021/05/27 01:17:23;;;;;;;20.25;11.85;;;10.10;99.90;;;;;;5017248;28;20037;-57
2021/05/27 01:19:53;;;;;;;19.33;12.23;;;10.10;99.90;;;;;;5026973;28;20021;-57
2021/05/27 01:22:23;;;;;;;18.38;13.00;;;10.00;99.90;;;;;;5020103;28;20029;-59
2021/05/27 01:24:49;;;;;;;21.42;13.48;;;10.10;99.90;;;;;;5026513;28;20033;-58
2021/05/27 01:27:16;;;;;;;22.45;13.43;;;10.10;99.90;;;;;;5020366;28;20403;-58
2021/05/27 01:29:42;;;;;;;21.25;13.02;;;10.00;99.90;;;;;;5028497;28;20113;-58
2021/05/27 01:32:10;;;;;;;23.73;13.38;;;10.10;99.90;;;;;;5020197;28;20049;-58
2021/05/27 01:34:36;;;;;;;26.35;14.27;;;10.10;99.90;;;;;;5021563;28;20117;-58
2021/05/27 01:37:03;;;;;;;20.38;13.38;;;10.10;99.90;;;;;;5015377;28;20424;-55
2021/05/27 01:39:28;;;;;;;26.35;14.57;;;10.00;99.90;;;;;;5012687;28;20037;-58
2021/05/27 01:41:54;;;;;;;24.77;13.70;;;10.00;99.90;;;;;;5020651;28;20092;-58
2021/05/27 01:44:19;;;;;;;18.55;13.27;;;10.00;99.90;;;;;;5020354;28;20458;-58
2021/05/27 01:46:45;;;;;;;22.70;15.20;;;10.00;99.90;;;;;;5023767;28;20033;-58
2021/05/27 01:49:10;;;;;;;24.50;13.98;;;10.00;99.90;;;;;;5016435;28;20029;-57
2021/05/27 01:51:36;;;;;;;26.23;14.45;;;10.00;99.90;;;;;;5021240;28;20034;-57
2021/05/27 01:54:03;;;;;;;22.10;14.25;;;10.00;99.90;;;;;;5027861;28;20116;-56
2021/05/27 01:56:28;;;;;;;23.30;14.52;;;10.00;99.90;;;;;;5020799;28;20506;-58
2021/05/27 01:59:04;;;;;;;25.42;15.23;;;10.00;99.90;;;;;;5022488;28;20037;-59
2021/05/27 02:01:30;;;;;;;21.83;14.20;;;10.00;99.90;;;;;;5017834;28;20038;-60
2021/05/27 02:03:56;;;;;;;27.88;14.88;;;10.00;99.90;;;;;;5013931;28;20182;-57
2021/05/27 02:06:22;;;;;;;23.88;13.70;;;10.00;99.90;;;;;;5022768;28;20108;-58
2021/05/27 02:11:32;;;;;;;31.75;15.18;;;10.00;99.90;;;;;;5025525;28;20076;-58
2021/05/27 02:13:58;;;;;;;23.20;16.45;;;10.00;99.90;;;;;;5013408;28;20029;-58
2021/05/27 02:16:24;;;;;;;26.98;16.08;;;10.10;99.90;;;;;;5011964;28;20096;-59
2021/05/27 02:18:49;;;;;;;19.35;14.70;;;10.00;99.90;;;;;;5021513;28;20030;-57
2021/05/27 02:21:15;;;;;;;24.95;14.55;;;10.00;99.90;;;;;;5017737;28;20042;-59
2021/05/27 02:23:40;;;;;;;31.10;14.65;;;10.00;99.90;;;;;;5020749;28;20565;-58
2021/05/27 02:26:06;;;;;;;25.95;15.48;;;10.00;99.90;;;;;;5010419;28;20029;-58
2021/05/27 02:28:32;;;;;;;19.83;13.88;;;10.00;99.90;;;;;;5019472;28;20053;-55
2021/05/27 02:30:57;;;;;;;28.98;14.77;;;10.00;99.90;;;;;;5020874;28;20067;-55
2021/05/27 02:33:23;;;;;;;25.52;15.27;;;10.00;99.90;;;;;;5011028;28;20407;-58
2021/05/27 02:35:48;;;;;;;23.65;14.75;;;10.00;99.90;;;;;;5013105;28;20033;-59
2021/05/27 02:38:14;;;;;;;21.48;14.43;;;10.00;99.90;;;;;;5023345;28;20048;-58
2021/05/27 02:40:39;;;;;;;24.92;14.70;;;10.10;99.90;;;;;;5021697;28;20501;-58
2021/05/27 02:43:05;;;;;;;23.48;14.45;;;10.00;99.90;;;;;;5020390;28;20482;-56
2021/05/27 02:45:31;;;;;;;26.33;14.65;;;10.00;99.90;;;;;;5023795;28;20133;-58
2021/05/27 02:47:56;;;;;;;25.25;15.15;;;10.00;99.90;;;;;;5020771;28;20053;-59
2021/05/27 02:50:22;;;;;;;27.48;14.55;;;10.00;99.90;;;;;;5021924;28;20441;-56
2021/05/27 02:52:47;;;;;;;26.13;15.65;;;10.00;99.90;;;;;;5013455;28;20529;-55
2021/05/27 02:55:13;;;;;;;23.40;14.68;;;10.10;99.90;;;;;;5016118;28;20033;-59
2021/05/27 02:57:39;;;;;;;19.85;14.40;;;10.00;99.90;;;;;;5019236;28;20022;-57
2021/05/27 03:00:08;;;;;;;24.10;14.75;;;10.00;99.90;;;;;;5020953;28;20109;-56
2021/05/27 03:02:34;;;;;;;25.63;14.70;;;10.10;99.90;;;;;;5017743;28;20030;-58
2021/05/27 03:04:59;;;;;;;20.10;15.43;;;10.10;99.90;;;;;;5021807;28;20025;-55
2021/05/27 03:07:25;;;;;;;26.35;15.40;;;10.10;99.90;;;;;;5023168;28;20109;-55
2021/05/27 03:09:50;;;;;;;29.95;14.90;;;10.10;99.90;;;;;;5007827;28;20014;-56
2021/05/27 03:12:16;;;;;;;27.60;15.98;;;10.10;99.90;;;;;;5011256;28;20543;-57
2021/05/27 03:14:42;;;;;;;22.15;14.07;;;10.10;99.90;;;;;;5020465;28;20032;-54
2021/05/27 03:17:07;;;;;;;21.52;16.10;;;10.10;99.90;;;;;;5018396;28;20100;-58
2021/05/27 03:19:33;;;;;;;21.45;14.60;;;10.10;99.90;;;;;;5022242;28;20108;-57
2021/05/27 03:21:58;;;;;;;23.30;13.73;;;10.10;99.90;;;;;;5016369;28;20041;-57
2021/05/27 03:24:24;;;;;;;21.88;15.23;;;10.10;99.90;;;;;;5029701;28;20029;-58
2021/05/27 03:26:51;;;;;;;23.98;15.32;;;10.00;99.90;;;;;;5020348;28;20033;-57
2021/05/27 03:29:21;;;;;;;26.17;14.75;;;10.00;99.90;;;;;;5016827;28;20025;-54
2021/05/27 03:31:46;;;;;;;20.42;13.90;;;10.00;99.90;;;;;;5010612;28;20246;-52
2021/05/27 03:34:12;;;;;;;28.75;16.73;;;10.00;99.90;;;;;;5019977;28;20030;-55
2021/05/27 03:36:38;;;;;;;24.42;15.95;;;10.00;99.90;;;;;;5021398;28;20037;-55
2021/05/27 03:39:05;;;;;;;28.70;16.05;;;10.00;99.90;;;;;;5021311;28;20079;-56
2021/05/27 03:41:30;;;;;;;27.02;14.57;;;10.00;99.90;;;;;;5014186;28;20033;-56
2021/05/27 03:43:56;;;;;;;20.02;14.68;;;10.10;99.90;;;;;;5010526;28;20037;-54
2021/05/27 03:46:21;;;;;;;21.67;15.30;;;10.10;99.90;;;;;;5016499;28;20041;-53
2021/05/27 03:48:47;;;;;;;24.08;15.50;;;10.00;99.90;;;;;;5021278;28;20022;-53
2021/05/27 03:51:13;;;;;;;29.23;15.25;;;10.00;99.90;;;;;;5017096;28;20483;-55
2021/05/27 03:53:38;;;;;;;25.40;14.10;;;10.00;99.90;;;;;;5017977;28;20372;-53
2021/05/27 03:56:04;;;;;;;24.55;15.50;;;10.10;99.90;;;;;;5019906;28;20021;-56
2021/05/27 04:01:14;;;;;;;24.80;15.95;;;10.00;99.90;;;;;;5013660;28;20048;-60
2021/05/27 04:09:21;;;;;;;27.13;15.77;;;10.00;99.90;;;;;;4987424;28;20033;-56
2021/05/27 04:11:47;;;;;;;26.63;16.38;;;10.00;99.90;;;;;;5020453;28;20487;-57
2021/05/27 04:14:12;;;;;;;23.35;16.98;;;9.90;99.90;;;;;;5017223;28;20514;-59
2021/05/27 04:16:38;;;;;;;26.58;18.05;;;9.90;99.90;;;;;;5009750;28;20033;-61
2021/05/27 04:19:03;;;;;;;26.55;16.55;;;9.90;99.90;;;;;;5010972;28;20677;-59
2021/05/27 04:21:29;;;;;;;25.10;18.05;;;9.90;99.90;;;;;;5015472;28;20488;-53
2021/05/27 04:23:55;;;;;;;24.00;16.88;;;9.90;99.90;;;;;;5021071;28;20032;-55
2021/05/27 04:26:20;;;;;;;25.50;17.95;;;9.90;99.90;;;;;;5014624;28;20111;-56
2021/05/27 04:28:47;;;;;;;26.27;18.35;;;9.90;99.90;;;;;;5019665;28;20030;-55
2021/05/27 04:31:16;;;;;;;26.05;17.15;;;9.90;99.90;;;;;;5019072;28;20033;-59
2021/05/27 04:33:46;;;;;;;25.90;16.20;;;9.90;99.90;;;;;;5019168;28;20010;-56
2021/05/27 04:36:17;;;;;;;25.63;18.42;;;9.90;99.90;;;;;;5011561;28;20037;-58
2021/05/27 04:38:44;;;;;;;30.13;17.52;;;9.90;99.90;;;;;;5017205;28;20514;-57
2021/05/27 04:41:10;;;;;;;27.83;16.02;;;9.90;99.90;;;;;;5025495;28;20033;-59
2021/05/27 04:43:39;;;;;;;24.00;16.17;;;10.00;99.90;;;;;;5024736;28;20399;-59
2021/05/27 04:46:06;;;;;;;25.52;16.27;;;10.00;99.90;;;;;;5021745;28;20040;-56
2021/05/27 04:48:32;;;;;;;23.38;16.67;;;10.00;99.90;;;;;;5020658;28;20026;-53
2021/05/27 04:50:57;;;;;;;23.98;15.30;;;9.90;99.90;;;;;;5022196;28;20017;-57
2021/05/27 04:53:24;;;;;;;27.77;16.55;;;10.00;99.90;;;;;;5018215;28;20022;-54
2021/05/27 04:55:50;;;;;;;21.83;14.25;;;10.00;99.90;;;;;;5024316;28;20499;-56
2021/05/27 04:58:16;;;;;;;25.30;14.25;;;10.00;99.90;;;;;;5024645;28;20033;-56
2021/05/27 05:00:44;;;;;;;26.88;14.55;;;10.00;99.90;;;;;;5021789;28;20048;-56
2021/05/27 05:03:10;;;;;;;25.92;17.17;;;10.00;99.90;;;;;;5020163;28;20026;-53
2021/05/27 05:05:36;;;;;;;24.70;14.57;;;10.00;99.90;;;;;;5022843;28;20068;-57
2021/05/27 05:08:03;;;;;;;20.63;14.48;;;9.90;99.90;;;;;;5013756;28;20028;-57
2021/05/27 05:10:29;;;;;;;21.15;13.52;;;10.00;99.90;;;;;;5019117;28;20033;-55
2021/05/27 05:12:56;;;;;;;17.83;13.70;;;10.00;99.90;;;;;;5019066;28;20582;-56
2021/05/27 05:15:27;;;;;;;16.23;13.18;;;10.00;99.90;;;;;;5012464;28;20037;-58
2021/05/27 05:17:56;;;;;;;21.25;14.30;;;10.10;99.90;;;;;;5023010;28;20033;-59
2021/05/27 05:20:24;;;;;;;23.70;14.30;;;10.10;99.90;;;;;;5015626;28;20058;-56
2021/05/27 05:22:51;;;;;;;18.63;12.65;;;10.10;99.90;;;;;;5022621;28;20025;-59
2021/05/27 05:25:18;;;;;;;24.27;13.20;;;10.10;99.90;;;;;;5008901;28;20030;-58
2021/05/27 05:27:44;;;;;;;23.73;14.43;;;10.10;99.90;;;;;;5014745;28;20030;-57
2021/05/27 05:30:11;;;;;;;21.58;13.88;;;10.10;99.90;;;;;;5020363;28;20084;-56
2021/05/27 05:32:37;;;;;;;20.35;13.43;;;10.20;99.90;;;;;;5021941;28;20026;-55
2021/05/27 05:35:05;;;;;;;22.77;14.68;;;10.20;99.90;;;;;;5026247;28;20385;-56
2021/05/27 05:37:30;;;;;;;22.05;13.32;;;10.30;99.90;;;;;;5021010;28;20056;-56
2021/05/27 05:39:56;;;;;;;21.67;15.02;;;10.30;99.90;;;;;;5021406;28;20479;-55
2021/05/27 05:42:21;;;;;;;18.90;14.25;;;10.30;99.90;;;;;;5021311;28;20049;-59
2021/05/27 05:44:47;;;;;;;20.02;15.68;;;10.20;99.90;;;;;;5015499;28;20728;-54
2021/05/27 05:47:13;;;;;;;26.85;16.08;;;10.30;99.90;;;;;;5013118;28;20061;-59
2021/05/27 05:49:38;;;;;;;22.45;16.38;;;10.30;99.90;;;;;;5020508;28;20033;-59
2021/05/27 05:52:04;;;;;;;28.35;17.40;;;10.30;99.90;;;;;;5024727;28;20060;-57
2021/05/27 05:54:30;;;;;;;27.85;16.75;;;10.30;99.90;;;;;;5018108;28;20395;-59
2021/05/27 05:56:56;;;;;;;23.65;17.17;;;10.30;99.90;;;;;;5033746;28;20026;-60
2021/05/27 05:59:21;;;;;;;27.13;17.50;;;10.40;99.90;;;;;;5030745;28;20041;-59
2021/05/27 06:01:47;;;;;;;25.17;17.30;;;10.40;99.90;;;;;;5022959;28;20026;-61
2021/05/27 06:04:12;;;;;;;25.23;16.45;;;10.40;99.90;;;;;;5021503;28;20091;-56
2021/05/27 06:06:38;;;;;;;20.38;15.55;;;10.40;99.90;;;;;;5016823;28;20033;-55
2021/05/27 06:09:04;;;;;;;25.92;17.17;;;10.30;99.90;;;;;;5018795;28;20037;-56
2021/05/27 06:11:29;;;;;;;30.77;17.80;;;10.30;99.90;;;;;;5023065;28;20038;-57
2021/05/27 06:13:56;;;;;;;24.70;16.27;;;10.30;99.90;;;;;;5022948;28;20030;-58
2021/05/27 06:16:21;;;;;;;23.15;16.80;;;10.40;99.90;;;;;;5009931;28;20500;-52
2021/05/27 06:18:47;;;;;;;23.05;15.05;;;10.40;99.90;;;;;;5014013;28;20044;-55
2021/05/27 06:21:13;;;;;;;24.27;17.02;;;10.40;99.90;;;;;;5015458;28;20034;-54
2021/05/27 06:23:38;;;;;;;25.98;16.80;;;10.40;99.90;;;;;;5011515;28;20509;-56
2021/05/27 06:26:04;;;;;;;25.90;18.33;;;10.40;99.90;;;;;;5013689;28;20064;-54
2021/05/27 06:28:29;;;;;;;22.27;16.10;;;10.30;99.90;;;;;;5024702;28;20026;-56
2021/05/27 06:30:56;;;;;;;29.85;18.60;;;10.30;99.90;;;;;;5020437;28;20487;-57
2021/05/27 06:33:22;;;;;;;23.75;18.27;;;10.30;99.90;;;;;;5011277;28;20022;-57
2021/05/27 06:35:48;;;;;;;36.15;18.92;;;10.30;99.90;;;;;;5020519;28;20483;-57
2021/05/27 06:38:14;;;;;;;30.20;19.30;;;10.30;99.90;;;;;;5014958;28;20038;-56
2021/05/27 06:40:41;;;;;;;24.65;16.85;;;10.40;99.90;;;;;;5021353;28;20034;-55
2021/05/27 06:43:06;;;;;;;24.15;18.08;;;10.30;99.90;;;;;;5011624;28;20041;-58
2021/05/27 06:45:33;;;;;;;23.50;18.77;;;10.30;99.90;;;;;;5024319;28;20028;-56
2021/05/27 06:47:58;;;;;;;27.25;17.13;;;10.40;99.90;;;;;;5014768;28;20068;-59
2021/05/27 06:50:35;;;;;;;25.38;17.80;;;10.40;99.90;;;;;;5010177;28;20030;-58
2021/05/27 06:53:05;;;;;;;25.20;18.05;;;10.40;99.90;;;;;;5012536;28;20009;-59
2021/05/27 06:55:31;;;;;;;24.55;17.33;;;10.30;99.90;;;;;;5012105;28;20037;-60
2021/05/27 06:57:57;;;;;;;28.05;18.38;;;10.30;99.90;;;;;;5023006;28;20410;-60
2021/05/27 07:00:23;;;;;;;31.85;19.00;;;10.30;99.90;;;;;;4992261;28;20046;-57
2021/05/27 07:02:49;;;;;;;29.35;18.70;;;10.30;99.90;;;;;;5012872;28;20037;-57
2021/05/27 07:05:15;;;;;;;32.08;16.95;;;10.40;99.90;;;;;;5020049;28;20059;-55
2021/05/27 07:07:40;;;;;;;28.73;15.88;;;10.50;99.90;;;;;;5016153;28;20027;-55
2021/05/27 07:10:07;;;;;;;26.92;17.88;;;10.50;99.90;;;;;;5011479;28;20033;-57
2021/05/27 07:12:33;;;;;;;27.50;17.30;;;10.50;99.90;;;;;;5022791;28;20510;-55
2021/05/27 07:14:59;;;;;;;33.17;18.10;;;10.40;99.90;;;;;;5007619;28;20038;-56
2021/05/27 07:17:25;;;;;;;31.92;18.63;;;10.30;99.90;;;;;;5010869;28;20099;-57
2021/05/27 07:19:52;;;;;;;25.50;17.77;;;10.40;99.90;;;;;;5017356;28;20058;-54
2021/05/27 07:22:19;;;;;;;34.05;18.95;;;10.30;99.90;;;;;;5023348;28;20034;-57
2021/05/27 07:24:46;;;;;;;31.70;19.63;;;10.40;99.90;;;;;;5017357;28;20028;-55
2021/05/27 07:27:12;;;;;;;30.92;18.20;;;10.50;99.90;;;;;;5007051;28;20036;-57
2021/05/27 07:29:38;;;;;;;27.55;17.77;;;10.50;99.90;;;;;;5022826;28;20021;-57
2021/05/27 07:32:06;;;;;;;30.63;18.25;;;10.60;99.90;;;;;;5018322;28;20026;-57
2021/05/27 07:34:32;;;;;;;29.17;19.05;;;10.70;99.90;;;;;;5024083;28;20032;-55
2021/05/27 07:36:58;;;;;;;27.98;17.73;;;10.70;99.90;;;;;;5013655;28;20109;-58
2021/05/27 07:39:23;;;;;;;25.88;15.85;;;10.70;99.90;;;;;;5008918;28;20124;-56
2021/05/27 07:41:49;;;;;;;33.85;17.90;;;10.70;99.90;;;;;;5015270;28;20474;-57
2021/05/27 07:44:15;;;;;;;24.65;16.17;;;10.80;99.90;;;;;;5018374;28;20580;-56
2021/05/27 07:46:41;;;;;;;24.75;16.80;;;10.90;99.90;;;;;;5020941;28;20446;-56
2021/05/27 07:49:06;;;;;;;24.60;14.48;;;11.00;99.90;;;;;;5012275;28;20028;-57
2021/05/27 07:51:32;;;;;;;23.27;15.70;;;11.20;99.90;;;;;;5014727;28;20026;-56
2021/05/27 07:53:57;;;;;;;27.27;16.08;;;11.30;99.90;;;;;;5019637;28;20029;-58
2021/05/27 07:56:23;;;;;;;20.58;15.27;;;11.50;99.90;;;;;;5018476;28;20037;-57
2021/05/27 07:58:48;;;;;;;28.33;15.25;;;11.60;99.90;;;;;;5018331;28;20054;-58
2021/05/27 08:01:15;;;;;;;19.77;14.30;;;11.80;99.90;;;;;;4990048;28;20500;-58
2021/05/27 08:03:41;;;;;;;19.00;15.10;;;11.70;99.90;;;;;;5009389;28;20044;-59
2021/05/27 08:06:06;;;;;;;26.50;14.90;;;11.50;99.90;;;;;;5009764;28;20029;-57
2021/05/27 08:08:32;;;;;;;22.02;14.90;;;11.40;99.90;;;;;;5004413;28;20556;-58
2021/05/27 08:10:58;;;;;;;25.55;15.40;;;11.40;99.90;;;;;;5006796;28;20048;-59
2021/05/27 08:13:23;;;;;;;24.83;15.55;;;11.20;99.90;;;;;;5017372;28;20022;-59
2021/05/27 08:15:49;;;;;;;25.58;16.75;;;11.10;99.90;;;;;;5017329;28;20101;-59
2021/05/27 08:18:15;;;;;;;22.30;15.48;;;11.00;99.90;;;;;;5020680;28;20053;-59
2021/05/27 08:20:40;;;;;;;26.65;16.02;;;11.00;99.90;;;;;;5010324;28;20033;-58
2021/05/27 08:23:06;;;;;;;27.55;17.42;;;10.80;99.90;;;;;;5021988;28;20030;-57
2021/05/27 08:25:32;;;;;;;27.77;18.50;;;10.80;99.90;;;;;;5008929;28;20118;-60
2021/05/27 08:27:58;;;;;;;28.23;15.95;;;10.90;99.90;;;;;;5013047;28;20116;-60
2021/05/27 08:30:23;;;;;;;27.90;17.33;;;10.90;99.90;;;;;;5025067;28;20087;-61
2021/05/27 08:32:49;;;;;;;22.13;15.07;;;11.10;99.90;;;;;;5018588;28;20027;-59
2021/05/27 08:35:15;;;;;;;20.65;13.88;;;11.20;99.90;;;;;;5017727;28;20041;-56
2021/05/27 08:37:40;;;;;;;22.92;14.88;;;11.50;99.90;;;;;;5018592;28;20030;-55
2021/05/27 08:40:07;;;;;;;16.33;13.07;;;11.60;99.90;;;;;;5021334;28;20403;-57
2021/05/27 08:42:34;;;;;;;19.60;13.93;;;11.50;99.90;;;;;;5016237;28;20049;-57
2021/05/27 08:45:01;;;;;;;20.58;12.93;;;11.40;99.90;;;;;;5013384;28;20037;-57
2021/05/27 08:47:28;;;;;;;20.45;13.10;;;11.30;99.90;;;;;;5018987;28;20065;-58
2021/05/27 08:49:55;;;;;;;17.88;11.75;;;11.50;99.90;;;;;;5016617;28;20018;-56
2021/05/27 08:52:20;;;;;;;18.70;11.15;;;11.80;99.90;;;;;;5018930;28;20468;-58
2021/05/27 08:54:46;;;;;;;20.10;10.77;;;12.00;99.90;;;;;;5017576;28;20045;-56
2021/05/27 08:57:12;;;;;;;19.13;10.70;;;11.90;99.90;;;;;;5018832;28;20049;-57
2021/05/27 08:59:37;;;;;;;20.25;9.38;;;12.00;99.90;;;;;;5008073;28;20042;-58
2021/05/27 09:02:04;;;;;;;16.10;10.75;;;12.10;99.90;;;;;;5000835;28;20061;-59
2021/05/27 09:04:30;;;;;;;17.73;9.55;;;12.40;99.90;;;;;;5015382;28;20436;-57
2021/05/27 09:06:55;;;;;;;17.63;9.40;;;12.70;99.90;;;;;;5016104;28;20037;-59
2021/05/27 09:09:21;;;;;;;16.13;7.85;;;13.00;99.90;;;;;;5022254;28;20030;-58
2021/05/27 09:11:48;;;;;;;15.55;8.07;;;13.00;99.90;;;;;;5010264;28;20026;-58
2021/05/27 09:14:14;;;;;;;11.77;7.72;;;13.40;99.90;;;;;;5007764;28;20023;-59
2021/05/27 09:16:56;;;;;;;13.07;6.88;;;13.50;99.90;;;;;;5007374;28;20479;-58
2021/05/27 09:19:22;;;;;;;13.10;7.45;;;13.60;99.90;;;;;;5008868;28;20029;-56
2021/05/27 09:21:48;;;;;;;14.30;8.27;;;13.70;99.90;;;;;;5008097;28;20022;-58
2021/05/27 09:24:13;;;;;;;14.52;6.82;;;13.70;99.90;;;;;;5008677;28;20024;-58
2021/05/27 09:26:52;;;;;;;14.38;8.02;;;13.60;99.90;;;;;;5022840;28;20037;-58
2021/05/27 09:29:18;;;;;;;11.40;6.90;;;13.40;99.90;;;;;;5021763;28;20030;-58
2021/05/27 09:32:03;;;;;;;12.68;6.88;;;13.20;99.90;;;;;;5011746;28;20030;-59
2021/05/27 09:34:51;;;;;;;13.18;6.32;;;13.40;99.90;;;;;;5019760;28;20104;-58
2021/05/27 09:37:31;;;;;;;13.52;7.10;;;13.50;99.90;;;;;;5013964;28;20021;-59
2021/05/27 09:39:58;;;;;;;16.85;8.20;;;13.40;99.90;;;;;;5026913;28;20026;-56
2021/05/27 09:42:24;;;;;;;9.68;6.47;;;13.40;99.90;;;;;;5016564;28;20395;-58
2021/05/27 09:44:51;;;;;;;12.38;6.28;;;13.40;99.90;;;;;;5025855;28;20471;-56
2021/05/27 09:47:33;;;;;;;12.00;6.63;;;13.60;99.90;;;;;;5017840;28;20035;-58
2021/05/27 09:50:02;;;;;;;10.65;6.75;;;13.50;99.90;;;;;;5003560;28;20360;-57
2021/05/27 09:52:40;;;;;;;13.00;6.90;;;13.40;99.90;;;;;;5009208;28;20022;-58
2021/05/27 09:55:11;;;;;;;14.65;7.88;;;13.20;99.90;;;;;;5006119;28;20036;-56
2021/05/27 09:57:37;;;;;;;14.65;7.30;;;13.00;99.90;;;;;;5009862;28;20110;-57
2021/05/27 10:00:11;;;;;;;12.73;6.50;;;12.90;99.90;;;;;;5005826;28;20513;-60
2021/05/27 10:02:36;;;;;;;;;;;12.80;99.90;;;;;;5023276;28;20080;-57
2021/05/27 10:05:04;;;;;;;14.23;6.57;;;12.60;99.90;;;;;;5005503;28;19917;-60
2021/05/27 10:07:56;;;;;;;12.40;7.47;;;12.70;99.90;;;;;;5000991;28;20365;-55
2021/05/27 10:10:23;;;;;;;9.82;6.03;;;12.60;99.90;;;;;;5004969;28;20080;-59
2021/05/27 10:12:52;;;;;;;15.70;7.45;;;12.50;99.90;;;;;;5010356;28;20030;-59
2021/05/27 10:15:20;;;;;;;13.93;7.10;;;12.40;99.90;;;;;;5002828;28;20502;-58
2021/05/27 10:17:46;;;;;;;12.57;7.80;;;12.30;99.90;;;;;;5013287;28;20049;-57
2021/05/27 10:20:17;;;;;;;12.25;7.40;;;12.10;99.90;;;;;;5011941;28;20041;-56
2021/05/27 10:22:45;;;;;;;13.48;7.28;;;12.00;99.90;;;;;;5015939;28;21779;-60
2021/05/27 10:25:14;;;;;;;11.70;6.68;;;11.90;99.90;;;;;;5016508;28;20077;-55
2021/05/27 10:27:43;;;;;;;11.50;7.53;;;12.10;99.90;;;;;;5021762;28;20112;-56
2021/05/27 10:30:09;;;;;;;14.48;7.82;;;12.50;99.90;;;;;;5009977;28;20029;-57
2021/05/27 10:32:49;;;;;;;13.73;7.50;;;12.70;99.90;;;;;;5011769;28;20128;-58
2021/05/27 10:35:15;;;;;;;16.42;7.57;;;12.70;99.90;;;;;;5016806;28;20056;-58
2021/05/27 10:37:42;;;;;;;9.85;6.78;;;12.90;99.90;;;;;;5017517;28;20117;-58
2021/05/27 10:40:23;;;;;;;11.93;7.07;;;13.00;99.90;;;;;;5016698;28;20095;-58
2021/05/27 10:43:13;;;;;;;12.27;6.45;;;13.20;99.90;;;;;;5011043;28;20030;-59
2021/05/27 10:46:11;;;;;;;13.23;6.55;;;13.30;99.90;;;;;;5017343;28;20036;-59
2021/05/27 10:48:42;;;;;;;13.85;7.10;;;13.10;99.90;;;;;;4999422;28;20029;-58
2021/05/27 10:51:26;;;;;;;11.32;6.55;;;13.00;99.90;;;;;;5010681;28;20020;-58
2021/05/27 10:53:56;;;;;;;12.73;6.15;;;12.80;99.90;;;;;;5016568;28;20234;-57
2021/05/27 10:56:39;;;;;;;12.65;6.68;;;12.60;99.90;;;;;;5013855;28;20113;-59
2021/05/27 10:59:10;;;;;;;13.23;6.72;;;12.30;99.90;;;;;;5017135;28;20421;-58
2021/05/27 11:01:50;;;;;;;13.73;6.40;;;12.10;99.90;;;;;;5001503;28;20515;-59
2021/05/27 11:04:48;;;;;;;12.75;6.53;;;11.90;99.90;;;;;;5010289;28;20084;-57
2021/05/27 11:07:25;;;;;;;13.23;7.90;;;11.80;99.90;;;;;;4984280;28;20037;-59
2021/05/27 11:09:52;;;;;;;13.27;7.18;;;11.80;99.90;;;;;;5004286;28;20029;-57
2021/05/27 11:12:23;;;;;;;11.88;7.43;;;11.70;99.90;;;;;;5012049;28;20061;-57
2021/05/27 11:15:04;;;;;;;14.07;7.68;;;11.60;99.90;;;;;;5006011;28;20026;-58
2021/05/27 11:17:30;;;;;;;21.50;7.97;;;11.70;99.90;;;;;;5011761;28;20360;-58
2021/05/27 11:20:20;;;;;;;11.02;8.00;;;11.60;99.90;;;;;;5003977;28;20026;-57
2021/05/27 11:22:59;;;;;;;16.25;9.10;;;11.70;99.90;;;;;;5007276;28;20019;-55
2021/05/27 11:25:29;;;;;;;13.27;7.03;;;11.90;99.90;;;;;;5008643;28;20030;-58
2021/05/27 11:27:59;;;;;;;13.43;7.00;;;12.00;99.90;;;;;;5006161;28;20025;-58
2021/05/27 11:30:41;;;;;;;12.38;6.93;;;12.20;99.90;;;;;;5014935;28;20061;-58
2021/05/27 11:33:30;;;;;;;15.32;6.85;;;12.50;99.90;;;;;;5005456;28;20026;-57
2021/05/27 11:35:59;;;;;;;16.63;6.90;;;12.70;99.90;;;;;;5003160;28;20056;-56
2021/05/27 11:38:26;;;;;;;15.38;6.80;;;12.70;99.90;;;;;;5004472;28;20100;-57
2021/05/27 11:41:01;;;;;;;14.98;7.25;;;12.90;99.90;;;;;;5012777;28;20033;-60
2021/05/27 11:43:38;;;;;;;13.10;7.10;;;13.00;99.90;;;;;;5002306;28;20026;-58
2021/05/27 11:46:08;;;;;;;21.08;7.35;;;13.00;99.90;;;;;;5003545;28;20022;-59
2021/05/27 11:51:04;;;;;;;13.70;6.80;;;12.70;99.90;;;;;;5001897;28;20068;-57
2021/05/27 11:53:48;;;;;;;14.30;7.70;;;12.60;99.90;;;;;;5010665;28;20490;-57
2021/05/27 11:56:42;;;;;;;14.18;7.22;;;12.90;99.90;;;;;;5010577;28;20017;-58
2021/05/27 11:59:18;;;;;;;10.90;6.60;;;13.10;99.90;;;;;;5001139;28;20073;-56
2021/05/27 12:01:54;;;;;;;13.95;6.93;;;13.30;99.90;;;;;;4992687;28;20042;-56
2021/05/27 12:04:21;;;;;;;13.45;7.47;;;13.30;99.90;;;;;;5007652;28;20084;-58
2021/05/27 12:07:02;;;;;;;14.07;6.97;;;13.50;99.90;;;;;;5011167;28;20060;-57
2021/05/27 12:09:43;;;;;;;15.52;7.97;;;13.70;99.90;;;;;;5004593;28;20518;-55
2021/05/27 12:12:19;;;;;;;15.07;7.95;;;14.10;99.90;;;;;;5008343;28;20407;-59
2021/05/27 12:14:46;;;;;;;16.48;7.50;;;14.10;99.90;;;;;;5011753;28;20021;-58
2021/05/27 12:17:22;;;;;;;10.15;6.15;;;14.30;99.90;;;;;;5006459;28;20042;-57
2021/05/27 12:19:50;;;;;;;18.10;7.97;;;14.20;99.90;;;;;;5006630;28;20120;-59
2021/05/27 12:22:16;;;;;;;13.18;7.10;;;14.20;99.90;;;;;;5003418;28;20518;-59
2021/05/27 12:24:42;;;;;;;15.50;6.78;;;14.00;99.90;;;;;;5008594;28;20038;-59
2021/05/27 12:27:08;;;;;;;10.88;7.78;;;13.90;99.90;;;;;;5014468;28;20597;-59
2021/05/27 12:29:34;;;;;;;11.88;6.82;;;13.80;99.90;;;;;;5006386;28;20022;-58
2021/05/27 12:32:02;;;;;;;16.25;6.97;;;13.80;99.90;;;;;;5008565;28;20069;-58
2021/05/27 12:34:29;;;;;;;15.48;7.50;;;13.60;99.90;;;;;;5017936;28;20033;-60
2021/05/27 12:36:59;;;;;;;12.10;6.43;;;13.60;99.90;;;;;;5011583;28;20053;-59
2021/05/27 12:39:37;;;;;;;13.73;6.63;;;13.50;99.90;;;;;;5012991;28;20076;-59
2021/05/27 12:42:08;;;;;;;14.70;7.50;;;13.60;99.90;;;;;;5017390;28;20036;-58
2021/05/27 12:44:44;;;;;;;21.17;11.38;;;13.40;99.90;;;;;;5012233;28;20508;-59
2021/05/27 12:47:18;;;;;;;16.17;8.85;;;13.10;99.90;;;;;;5008185;28;20044;-60
2021/05/27 12:49:45;;;;;;;14.65;8.98;;;12.80;99.90;;;;;;5011325;28;20487;-59
2021/05/27 12:52:11;;;;;;;22.13;8.55;;;12.80;99.90;;;;;;5009006;28;20133;-58